Time;durP1;ratioP1;P1;durP2;ratioP2;P2;SDS_P1;SDS_P2;PMS_P1;PMS_P2;Temp;Humidity;BMP_temperature;BMP_pressure;BME280_temperature;BME280_humidity;BME280_pressure;Samples;Min_cycle;Max_cycle;Signal;HPM_P1;HPM_P2
2023/10/24 00:01:33;;;;;;;4.68;1.95;;;10.60;99.90;;;;;;5085676;28;19970;-60
2023/10/24 00:03:59;;;;;;;;;;;10.60;99.90;;;;;;5088271;28;20071;-62
2023/10/24 00:06:24;;;;;;;6.90;1.92;;;10.60;99.90;;;;;;5093715;28;20397;-62
2023/10/24 00:08:50;;;;;;;;;;;10.60;99.90;;;;;;5085338;28;20388;-62
2023/10/24 00:11:15;;;;;;;6.97;1.88;;;10.60;99.90;;;;;;5088449;28;19928;-60
2023/10/24 00:13:41;;;;;;;;;;;10.60;99.90;;;;;;5085841;28;20466;-62
2023/10/24 00:16:07;;;;;;;5.90;1.85;;;10.60;99.90;;;;;;5083887;28;19923;-63
2023/10/24 00:18:32;;;;;;;;;;;10.70;99.90;;;;;;5079005;28;20037;-64
2023/10/24 00:20:58;;;;;;;4.38;1.95;;;10.60;99.90;;;;;;5077561;28;19916;-61
2023/10/24 00:23:24;;;;;;;5.10;1.92;;;10.60;99.90;;;;;;5083008;28;20235;-63
2023/10/24 00:25:50;;;;;;;;;;;10.70;99.90;;;;;;5079795;28;20682;-63
2023/10/24 00:28:15;;;;;;;4.55;1.95;;;10.70;99.90;;;;;;5072528;28;19920;-63
2023/10/24 00:30:41;;;;;;;7.25;3.03;;;10.70;99.90;;;;;;5076680;28;20380;-63
2023/10/24 00:33:07;;;;;;;;;;;10.70;99.90;;;;;;5077545;28;20583;-62
2023/10/24 00:35:33;;;;;;;5.55;2.38;;;10.80;99.90;;;;;;5081097;28;20402;-62
2023/10/24 00:37:59;;;;;;;8.63;2.92;;;10.80;99.90;;;;;;5076579;28;20535;-62
2023/10/24 00:40:24;;;;;;;;;;;10.70;99.90;;;;;;5074987;28;20146;-60
2023/10/24 00:42:51;;;;;;;7.45;2.88;;;10.70;99.90;;;;;;5076083;28;19997;-62
2023/10/24 00:45:17;;;;;;;5.47;3.35;;;10.80;99.90;;;;;;5071556;28;20515;-58
2023/10/24 00:47:43;;;;;;;11.43;3.58;;;10.80;99.90;;;;;;5078095;28;20048;-61
2023/10/24 00:50:09;;;;;;;7.15;3.70;;;10.80;99.90;;;;;;5072344;28;20044;-62
2023/10/24 00:52:36;;;;;;;;;;;10.80;99.90;;;;;;5074266;28;20059;-62
2023/10/24 00:55:03;;;;;;;5.90;2.78;;;10.80;99.90;;;;;;5069385;28;19931;-63
2023/10/24 00:57:29;;;;;;;10.23;3.45;;;10.90;99.90;;;;;;5075974;28;20043;-63
2023/10/24 00:59:54;;;;;;;;;;;10.80;99.90;;;;;;5079892;28;20107;-59
2023/10/24 01:02:20;;;;;;;9.30;3.03;;;10.90;99.90;;;;;;5070321;28;20417;-62
2023/10/24 01:04:47;;;;;;;;;;;10.90;99.90;;;;;;5077742;28;20135;-62
2023/10/24 01:07:12;;;;;;;9.27;3.88;;;10.90;99.90;;;;;;5078041;28;19931;-60
2023/10/24 01:09:38;;;;;;;;;;;10.90;99.90;;;;;;5082766;28;20048;-63
2023/10/24 01:12:04;;;;;;;12.85;4.07;;;10.90;99.90;;;;;;5066188;28;19943;-62
2023/10/24 01:14:30;;;;;;;8.60;3.78;;;10.90;99.90;;;;;;5077166;28;20515;-63
2023/10/24 01:16:56;;;;;;;;;;;10.90;99.90;;;;;;5069200;28;20046;-64
2023/10/24 01:19:21;;;;;;;11.13;3.70;;;10.90;99.90;;;;;;5065673;28;19935;-61
2023/10/24 01:21:47;;;;;;;;;;;10.90;99.90;;;;;;5079530;28;20032;-63
2023/10/24 01:24:14;;;;;;;8.27;3.47;;;11.00;99.90;;;;;;5065943;28;19920;-62
2023/10/24 01:26:41;;;;;;;6.78;3.80;;;11.00;99.90;;;;;;5078070;28;20484;-62
2023/10/24 01:29:08;;;;;;;10.90;3.90;;;11.00;99.90;;;;;;5072229;28;20113;-62
2023/10/24 01:31:34;;;;;;;11.20;4.03;;;11.00;99.90;;;;;;5073552;28;20043;-62
2023/10/24 01:34:00;;;;;;;;;;;11.00;99.90;;;;;;5078681;28;20044;-61
2023/10/24 01:36:25;;;;;;;12.27;4.43;;;11.00;99.90;;;;;;5068067;28;19916;-60
2023/10/24 01:38:51;;;;;;;;;;;11.00;99.90;;;;;;5073184;28;20062;-62
2023/10/24 01:41:16;;;;;;;5.88;3.58;;;11.00;99.90;;;;;;5067174;28;20284;-62
2023/10/24 01:43:42;;;;;;;11.40;4.55;;;11.00;99.90;;;;;;5074780;28;20119;-62
2023/10/24 01:46:08;;;;;;;10.95;3.95;;;11.00;99.90;;;;;;5069679;28;20645;-62
2023/10/24 01:48:33;;;;;;;9.05;4.45;;;11.00;99.90;;;;;;5074264;28;20082;-62
2023/10/24 01:50:59;;;;;;;;;;;11.00;99.90;;;;;;5075074;28;20040;-61
2023/10/24 01:53:24;;;;;;;12.77;4.38;;;11.00;99.90;;;;;;5072685;28;19924;-62
2023/10/24 01:55:50;;;;;;;;;;;11.00;99.90;;;;;;5070563;28;20044;-61
2023/10/24 01:58:16;;;;;;;6.15;4.10;;;11.00;99.90;;;;;;5078999;28;19927;-61
2023/10/24 02:00:41;;;;;;;;;;;11.00;99.90;;;;;;5072405;28;20119;-62
2023/10/24 02:03:07;;;;;;;6.50;4.07;;;11.00;99.90;;;;;;5075837;28;20014;-62
2023/10/24 02:05:32;;;;;;;;;;;11.00;99.90;;;;;;5073617;28;20484;-61
2023/10/24 02:07:58;;;;;;;4.68;3.22;;;11.10;99.90;;;;;;5065475;28;20454;-62
2023/10/24 02:10:24;;;;;;;;;;;11.10;99.90;;;;;;5074766;28;20083;-62
2023/10/24 02:12:49;;;;;;;8.27;3.80;;;11.10;99.90;;;;;;5082841;28;19920;-62
2023/10/24 02:15:15;;;;;;;;;;;11.10;99.90;;;;;;5079965;28;20506;-61
2023/10/24 02:17:43;;;;;;;6.05;4.00;;;11.10;99.90;;;;;;5076410;28;19943;-61
2023/10/24 02:20:09;;;;;;;5.25;3.47;;;11.10;99.90;;;;;;5069154;28;20033;-61
2023/10/24 02:22:35;;;;;;;;;;;11.10;99.90;;;;;;5079087;28;20051;-61
2023/10/24 02:25:00;;;;;;;6.32;4.80;;;11.10;99.90;;;;;;5076235;28;19920;-62
2023/10/24 02:27:27;;;;;;;16.58;3.78;;;11.10;99.90;;;;;;5078995;28;20062;-62
2023/10/24 02:29:53;;;;;;;5.72;3.20;;;11.10;99.90;;;;;;5067611;28;20132;-61
2023/10/24 02:32:19;;;;;;;;;;;11.10;99.90;;;;;;5060425;28;20472;-61
2023/10/24 02:34:51;;;;;;;4.95;2.90;;;11.10;99.90;;;;;;5070499;28;19925;-62
2023/10/24 02:37:16;;;;;;;8.38;2.92;;;11.10;99.90;;;;;;5081355;28;20057;-62
2023/10/24 02:39:42;;;;;;;;;;;11.20;99.90;;;;;;5064483;28;20044;-62
2023/10/24 02:42:08;;;;;;;4.75;2.72;;;11.20;99.90;;;;;;5053767;28;19917;-61
2023/10/24 02:44:33;;;;;;;;;;;11.20;99.90;;;;;;5069557;28;20040;-63
2023/10/24 02:46:59;;;;;;;5.05;2.20;;;11.20;99.90;;;;;;5077244;28;19946;-60
2023/10/24 02:49:25;;;;;;;;;;;11.20;99.90;;;;;;5076340;28;20052;-61
2023/10/24 02:51:50;;;;;;;4.55;2.42;;;11.20;99.90;;;;;;5067833;28;19920;-60
2023/10/24 02:54:16;;;;;;;3.40;1.90;;;11.20;99.90;;;;;;5067406;28;20041;-60
2023/10/24 02:56:42;;;;;;;;;;;11.20;99.90;;;;;;5063181;28;20503;-60
2023/10/24 02:59:07;;;;;;;3.35;2.00;;;11.30;99.90;;;;;;5075432;28;19917;-61
2023/10/24 03:01:33;;;;;;;5.07;2.35;;;11.30;99.90;;;;;;5076806;28;20047;-61
2023/10/24 03:03:58;;;;;;;;;;;11.30;99.90;;;;;;5079444;28;20412;-62
2023/10/24 03:06:24;;;;;;;4.45;1.50;;;11.30;99.90;;;;;;5078290;28;20349;-61
2023/10/24 03:08:50;;;;;;;;;;;11.30;99.90;;;;;;5069015;28;20054;-61
2023/10/24 03:11:25;;;;;;;5.03;1.38;;;11.30;99.90;;;;;;5065342;28;20295;-61
2023/10/24 03:13:54;;;;;;;3.58;1.65;;;11.30;99.90;;;;;;5076300;28;20518;-61
2023/10/24 03:16:20;;;;;;;5.18;1.58;;;11.30;99.90;;;;;;5064151;28;20040;-61
2023/10/24 03:18:48;;;;;;;5.95;1.33;;;11.30;99.90;;;;;;5075066;28;20043;-62
2023/10/24 03:21:20;;;;;;;12.45;2.28;;;11.40;99.90;;;;;;5050031;28;20051;-62
2023/10/24 03:23:47;;;;;;;2.38;1.50;;;11.30;99.90;;;;;;5067786;28;20055;-61
2023/10/24 03:26:13;;;;;;;;;;;11.30;99.90;;;;;;5072753;28;20048;-60
2023/10/24 03:28:38;;;;;;;4.28;1.63;;;11.30;99.90;;;;;;5081790;28;19971;-61
2023/10/24 03:31:06;;;;;;;9.18;1.13;;;11.30;99.90;;;;;;5069157;28;20489;-59
2023/10/24 03:33:32;;;;;;;3.13;1.27;;;11.30;99.90;;;;;;5077405;28;20119;-62
2023/10/24 03:35:59;;;;;;;2.90;1.05;;;11.30;99.90;;;;;;5073575;28;20079;-58
2023/10/24 03:38:26;;;;;;;2.30;0.98;;;11.30;99.90;;;;;;5078609;28;20044;-58
2023/10/24 03:40:53;;;;;;;2.90;1.10;;;11.40;99.90;;;;;;5069891;28;20052;-60
2023/10/24 03:43:19;;;;;;;3.58;1.08;;;11.40;99.90;;;;;;5077109;28;20044;-61
2023/10/24 03:45:44;;;;;;;;;;;11.40;99.90;;;;;;5070072;28;20044;-62
2023/10/24 03:48:11;;;;;;;6.72;1.33;;;11.40;99.90;;;;;;5078934;28;20018;-61
2023/10/24 03:50:37;;;;;;;5.15;1.33;;;11.30;99.90;;;;;;5072966;28;20043;-61
2023/10/24 03:53:06;;;;;;;5.45;0.98;;;11.30;99.90;;;;;;5082008;28;20040;-61
2023/10/24 03:55:33;;;;;;;2.45;1.02;;;11.30;99.90;;;;;;5074622;28;20043;-62
2023/10/24 03:57:59;;;;;;;1.90;0.98;;;11.30;99.90;;;;;;5072427;28;20518;-61
2023/10/24 04:00:24;;;;;;;;;;;11.30;99.90;;;;;;5071401;28;20499;-62
2023/10/24 04:02:53;;;;;;;1.20;0.65;;;11.20;99.90;;;;;;5083898;28;19984;-61
2023/10/24 04:05:19;;;;;;;2.78;0.80;;;11.20;99.90;;;;;;5077677;28;20046;-62
2023/10/24 04:07:46;;;;;;;;;;;11.20;99.90;;;;;;5077301;28;20135;-62
2023/10/24 04:10:13;;;;;;;2.05;0.77;;;11.20;99.90;;;;;;5072508;28;19916;-62
2023/10/24 04:12:39;;;;;;;3.00;1.00;;;11.10;99.90;;;;;;5080990;28;20043;-61
2023/10/24 04:15:06;;;;;;;1.42;0.57;;;11.20;99.90;;;;;;5068596;28;20116;-63
2023/10/24 04:17:34;;;;;;;1.77;0.95;;;11.20;99.90;;;;;;5082988;28;20101;-61
2023/10/24 04:20:00;;;;;;;4.20;0.80;;;11.20;99.90;;;;;;5078645;28;20039;-61
2023/10/24 04:22:27;;;;;;;;;;;11.20;99.90;;;;;;5077587;28;20106;-62
2023/10/24 04:24:53;;;;;;;2.40;0.75;;;11.20;99.90;;;;;;5073477;28;19920;-60
2023/10/24 04:27:19;;;;;;;1.65;0.73;;;11.20;99.90;;;;;;5077725;28;20037;-61
2023/10/24 04:29:46;;;;;;;2.03;0.55;;;11.20;99.90;;;;;;5074284;28;20059;-61
2023/10/24 04:32:12;;;;;;;1.67;0.70;;;11.20;99.90;;;;;;5071118;28;20065;-62
2023/10/24 04:34:38;;;;;;;4.25;0.73;;;11.20;99.90;;;;;;5066274;28;20044;-61
2023/10/24 04:37:04;;;;;;;;;;;11.20;99.90;;;;;;5061577;28;20041;-62
2023/10/24 04:39:30;;;;;;;2.10;0.57;;;11.20;99.90;;;;;;5073662;28;19966;-63
2023/10/24 04:41:55;;;;;;;;;;;11.20;99.90;;;;;;5074361;28;20036;-64
2023/10/24 04:44:21;;;;;;;1.77;0.90;;;11.20;99.90;;;;;;5078074;28;19927;-61
2023/10/24 04:46:47;;;;;;;0.93;0.60;;;11.20;99.90;;;;;;5070597;28;20500;-61
2023/10/24 04:49:13;;;;;;;;;;;11.20;99.90;;;;;;5075679;28;20095;-61
2023/10/24 04:51:39;;;;;;;1.08;0.60;;;11.20;99.90;;;;;;5074701;28;19916;-62
2023/10/24 04:54:05;;;;;;;;;;;11.20;99.90;;;;;;5082958;28;20036;-62
2023/10/24 04:56:31;;;;;;;3.33;0.82;;;11.20;99.90;;;;;;5073572;28;19916;-62
2023/10/24 04:58:56;;;;;;;;;;;11.30;99.90;;;;;;5074827;28;20055;-62
2023/10/24 05:01:22;;;;;;;2.35;0.60;;;11.20;99.90;;;;;;5064459;28;19931;-59
2023/10/24 05:03:47;;;;;;;;;;;11.20;99.90;;;;;;5076460;28;20493;-60
2023/10/24 05:06:13;;;;;;;2.10;0.77;;;11.20;99.90;;;;;;5071076;28;19924;-60
2023/10/24 05:08:39;;;;;;;;;;;11.30;99.90;;;;;;5068946;28;20047;-61
2023/10/24 05:11:04;;;;;;;2.55;0.57;;;11.30;99.90;;;;;;5062303;28;19923;-63
2023/10/24 05:13:30;;;;;;;;;;;11.30;99.90;;;;;;5077444;28;20396;-57
2023/10/24 05:15:56;;;;;;;1.23;0.80;;;11.30;99.90;;;;;;5067105;28;19920;-63
2023/10/24 05:18:21;;;;;;;;;;;11.20;99.90;;;;;;5069814;28;20052;-60
2023/10/24 05:20:47;;;;;;;0.93;0.65;;;11.20;99.90;;;;;;5063384;28;20354;-58
2023/10/24 05:23:12;;;;;;;;;;;11.30;99.90;;;;;;5069264;28;20084;-65
2023/10/24 05:25:38;;;;;;;3.28;0.60;;;11.30;99.90;;;;;;5071733;28;19920;-64
2023/10/24 05:28:04;;;;;;;;;;;11.30;99.90;;;;;;5071809;28;20041;-61
2023/10/24 05:30:29;;;;;;;2.85;0.88;;;11.20;99.90;;;;;;5056062;28;21617;-65
2023/10/24 05:32:58;;;;;;;;;;;11.30;99.90;;;;;;5059784;28;20507;-64
2023/10/24 05:35:24;;;;;;;3.47;0.60;;;11.20;99.90;;;;;;5048802;28;19916;-63
2023/10/24 05:37:49;;;;;;;;;;;11.30;99.90;;;;;;5059048;28;20035;-64
2023/10/24 05:40:15;;;;;;;1.10;0.60;;;11.20;99.90;;;;;;5051457;28;19920;-63
2023/10/24 05:42:41;;;;;;;6.78;1.10;;;11.20;99.90;;;;;;5053933;28;20110;-61
2023/10/24 05:45:07;;;;;;;3.55;0.63;;;11.20;99.90;;;;;;5052675;28;20554;-62
2023/10/24 05:47:33;;;;;;;1.42;0.40;;;11.20;99.90;;;;;;5059638;28;20047;-62
2023/10/24 05:49:59;;;;;;;;;;;11.10;99.90;;;;;;5054392;28;20036;-61
2023/10/24 05:52:24;;;;;;;3.30;0.80;;;11.10;99.90;;;;;;5057032;28;19921;-63
2023/10/24 05:54:50;;;;;;;;;;;11.10;99.90;;;;;;5056907;28;20032;-62
2023/10/24 05:57:16;;;;;;;5.47;0.50;;;11.00;99.90;;;;;;5059808;28;20009;-60
2023/10/24 05:59:41;;;;;;;;;;;11.00;99.90;;;;;;5055890;28;20095;-61
2023/10/24 06:02:07;;;;;;;1.30;0.55;;;11.00;99.90;;;;;;5071937;28;19923;-62
2023/10/24 06:04:34;;;;;;;0.98;0.50;;;11.00;99.90;;;;;;5066228;28;20686;-62
2023/10/24 06:07:00;;;;;;;2.72;0.60;;;11.00;99.90;;;;;;5068962;28;20504;-63
2023/10/24 06:09:25;;;;;;;;;;;11.00;99.90;;;;;;5072093;28;20052;-63
2023/10/24 06:11:51;;;;;;;1.67;0.75;;;11.00;99.90;;;;;;5072178;28;19927;-62
2023/10/24 06:14:17;;;;;;;1.85;0.50;;;11.00;99.90;;;;;;5068004;28;20652;-62
2023/10/24 06:16:43;;;;;;;;;;;10.90;99.90;;;;;;5071406;28;20050;-62
2023/10/24 06:19:08;;;;;;;5.20;0.65;;;10.90;99.90;;;;;;5078179;28;19916;-60
2023/10/24 06:21:34;;;;;;;;;;;10.90;99.90;;;;;;5074726;28;20063;-60
2023/10/24 06:23:59;;;;;;;6.22;0.77;;;10.90;99.90;;;;;;5070522;28;20010;-61
2023/10/24 06:26:25;;;;;;;;;;;10.90;99.90;;;;;;5075151;28;20121;-58
2023/10/24 06:28:51;;;;;;;1.20;0.40;;;10.90;99.90;;;;;;5077076;28;20426;-62
2023/10/24 06:31:17;;;;;;;3.58;0.63;;;10.90;99.90;;;;;;5067742;28;20037;-61
2023/10/24 06:33:42;;;;;;;1.55;0.40;;;10.90;99.90;;;;;;5073244;28;20518;-61
2023/10/24 06:36:08;;;;;;;;;;;10.90;99.90;;;;;;5077450;28;20044;-62
2023/10/24 06:38:34;;;;;;;5.53;0.60;;;11.00;99.90;;;;;;5075364;28;19967;-61
2023/10/24 06:41:01;;;;;;;1.85;0.43;;;10.90;99.90;;;;;;5076905;28;20040;-60
2023/10/24 06:43:26;;;;;;;4.10;0.50;;;11.00;99.90;;;;;;5071413;28;20040;-60
2023/10/24 06:45:52;;;;;;;;;;;11.00;99.90;;;;;;5071828;28;20477;-62
2023/10/24 06:48:19;;;;;;;6.32;0.90;;;11.00;99.90;;;;;;5068576;28;20588;-60
2023/10/24 06:50:45;;;;;;;2.55;0.63;;;11.00;99.90;;;;;;5072161;28;20040;-61
2023/10/24 06:53:11;;;;;;;;;;;11.00;99.90;;;;;;5070947;28;20102;-61
2023/10/24 06:55:37;;;;;;;0.77;0.32;;;11.00;99.90;;;;;;5072649;28;19934;-65
2023/10/24 06:58:04;;;;;;;1.33;0.40;;;11.00;99.90;;;;;;5070506;28;20032;-61
2023/10/24 07:00:33;;;;;;;3.85;0.60;;;11.00;99.90;;;;;;5067420;28;20566;-61
2023/10/24 07:02:58;;;;;;;4.20;0.52;;;11.00;99.90;;;;;;5074581;28;20033;-61
2023/10/24 07:05:24;;;;;;;;;;;11.00;99.90;;;;;;5077163;28;20093;-61
2023/10/24 07:07:50;;;;;;;5.63;0.60;;;11.10;99.90;;;;;;5072659;28;20695;-61
2023/10/24 07:10:16;;;;;;;;;;;11.00;99.90;;;;;;5072949;28;20101;-62
2023/10/24 07:12:41;;;;;;;7.22;0.52;;;11.00;99.90;;;;;;5074988;28;19943;-57
2023/10/24 07:15:08;;;;;;;;;;;11.10;99.90;;;;;;5071466;28;20511;-61
2023/10/24 07:17:35;;;;;;;7.22;1.33;;;11.10;99.90;;;;;;5073505;28;19924;-59
2023/10/24 07:20:01;;;;;;;0.85;0.35;;;11.10;99.90;;;;;;5072887;28;20052;-62
2023/10/24 07:22:28;;;;;;;1.40;0.35;;;11.10;99.90;;;;;;5076294;28;20048;-61
2023/10/24 07:24:54;;;;;;;3.00;0.70;;;11.20;99.90;;;;;;5066758;28;20090;-60
2023/10/24 07:27:20;;;;;;;;;;;11.20;99.90;;;;;;5070530;28;20039;-64
2023/10/24 07:29:45;;;;;;;4.10;0.65;;;11.20;99.90;;;;;;5079015;28;19948;-61
2023/10/24 07:32:12;;;;;;;0.70;0.60;;;11.20;99.90;;;;;;5074373;28;20174;-62
2023/10/24 07:34:41;;;;;;;0.93;0.40;;;11.20;99.90;;;;;;5073659;28;20467;-61
2023/10/24 07:37:10;;;;;;;1.02;0.40;;;11.20;99.90;;;;;;5073061;28;20036;-62
2023/10/24 07:39:36;;;;;;;1.75;0.55;;;11.20;99.90;;;;;;5080880;28;20047;-62
2023/10/24 07:42:03;;;;;;;1.48;0.60;;;11.20;99.90;;;;;;5076743;28;20046;-61
2023/10/24 07:44:28;;;;;;;5.30;0.57;;;11.20;99.90;;;;;;5074936;28;20139;-62
2023/10/24 07:46:54;;;;;;;;;;;11.20;99.90;;;;;;5073756;28;20107;-62
2023/10/24 07:49:20;;;;;;;1.45;0.70;;;11.20;99.90;;;;;;5080152;28;20657;-63
2023/10/24 07:51:45;;;;;;;;;;;11.20;99.90;;;;;;5076960;28;20032;-62
2023/10/24 07:54:12;;;;;;;2.05;0.60;;;11.20;99.90;;;;;;5076646;28;19916;-60
2023/10/24 07:56:39;;;;;;;0.60;0.50;;;11.20;99.90;;;;;;5069209;28;20043;-62
2023/10/24 07:59:05;;;;;;;1.08;0.70;;;11.20;99.90;;;;;;5079491;28;20190;-63
2023/10/24 08:01:30;;;;;;;;;;;11.20;99.90;;;;;;5067653;28;20725;-64
2023/10/24 08:03:56;;;;;;;0.95;0.50;;;11.20;99.90;;;;;;5076175;28;20295;-63
2023/10/24 08:06:21;;;;;;;;;;;11.10;99.90;;;;;;5081674;28;20899;-63
2023/10/24 08:08:47;;;;;;;5.00;0.70;;;11.10;99.90;;;;;;5068698;28;19978;-62
2023/10/24 08:11:13;;;;;;;;;;;11.10;99.90;;;;;;5081568;28;20043;-62
2023/10/24 08:13:39;;;;;;;1.45;0.50;;;11.10;99.90;;;;;;5076170;28;19963;-62
2023/10/24 08:16:05;;;;;;;;;;;11.10;99.90;;;;;;5075538;28;20070;-62
2023/10/24 08:18:31;;;;;;;2.75;1.33;;;11.20;99.90;;;;;;5073296;28;19987;-62
2023/10/24 08:20:56;;;;;;;;;;;11.20;99.90;;;;;;5074422;28;20123;-62
2023/10/24 08:23:22;;;;;;;3.50;0.70;;;11.10;99.90;;;;;;5080759;28;19924;-63
2023/10/24 08:25:47;;;;;;;;;;;11.10;99.90;;;;;;5075497;28;20542;-63
2023/10/24 08:28:13;;;;;;;2.67;0.90;;;11.10;99.90;;;;;;5085110;28;20018;-64
2023/10/24 08:30:39;;;;;;;;;;;11.10;99.90;;;;;;5076991;28;20040;-63
2023/10/24 08:33:04;;;;;;;2.38;0.73;;;11.10;99.90;;;;;;5076985;28;19916;-63
2023/10/24 08:35:30;;;;;;;;;;;11.10;99.90;;;;;;5073254;28;20048;-64
2023/10/24 08:37:55;;;;;;;0.70;0.47;;;11.10;99.90;;;;;;5076622;28;19916;-63
2023/10/24 08:40:21;;;;;;;;;;;11.20;99.90;;;;;;5078061;28;20028;-63
2023/10/24 08:42:47;;;;;;;1.10;0.80;;;11.20;99.90;;;;;;5079282;28;19930;-62
2023/10/24 08:45:14;;;;;;;;;;;11.10;99.90;;;;;;5071413;28;20098;-62
2023/10/24 08:47:41;;;;;;;0.95;0.60;;;11.20;99.90;;;;;;5071788;28;20360;-63
2023/10/24 08:50:07;;;;;;;0.63;0.57;;;11.10;99.90;;;;;;5077290;28;20036;-63
2023/10/24 08:52:32;;;;;;;;;;;11.10;99.90;;;;;;5076599;28;20041;-63
2023/10/24 08:55:00;;;;;;;3.22;0.60;;;11.20;99.90;;;;;;5077400;28;20403;-62
2023/10/24 08:57:30;;;;;;;1.25;0.70;;;11.20;99.90;;;;;;5077243;28;20440;-63
2023/10/24 08:59:57;;;;;;;1.65;0.73;;;11.10;99.90;;;;;;5072240;28;20061;-62
2023/10/24 09:02:23;;;;;;;1.23;0.60;;;11.10;99.90;;;;;;5075830;28;20059;-62
2023/10/24 09:04:51;;;;;;;;;;;11.10;99.90;;;;;;5075235;28;20048;-62
2023/10/24 09:07:17;;;;;;;1.60;0.60;;;11.20;99.90;;;;;;5077881;28;19920;-62
2023/10/24 09:09:42;;;;;;;;;;;11.20;99.90;;;;;;5072555;28;20528;-62
2023/10/24 09:12:14;;;;;;;2.78;0.77;;;11.20;99.90;;;;;;5072942;28;19995;-64
2023/10/24 09:14:44;;;;;;;4.32;0.70;;;11.10;99.90;;;;;;5075531;28;20040;-63
2023/10/24 09:17:11;;;;;;;1.13;0.65;;;11.20;99.90;;;;;;5068138;28;20059;-62
2023/10/24 09:19:39;;;;;;;1.05;0.57;;;11.10;99.90;;;;;;5073837;28;20048;-62
2023/10/24 09:22:05;;;;;;;2.33;0.70;;;11.10;99.90;;;;;;5079773;28;20123;-61
2023/10/24 09:24:31;;;;;;;;;;;11.00;99.90;;;;;;5079800;28;20127;-62
2023/10/24 09:26:59;;;;;;;1.73;0.60;;;11.10;99.90;;;;;;5073335;28;19916;-61
2023/10/24 09:29:27;;;;;;;1.55;0.70;;;11.10;99.90;;;;;;5076317;28;20457;-62
2023/10/24 09:31:53;;;;;;;5.82;0.60;;;11.10;99.90;;;;;;5069683;28;20553;-61
2023/10/24 09:34:19;;;;;;;1.75;0.50;;;11.10;99.90;;;;;;5074205;28;20041;-62
2023/10/24 09:36:46;;;;;;;2.22;0.60;;;11.10;99.90;;;;;;5070160;28;20048;-64
2023/10/24 09:39:13;;;;;;;1.00;0.60;;;11.10;99.90;;;;;;5079119;28;20032;-65
2023/10/24 09:41:43;;;;;;;1.23;0.55;;;11.20;99.90;;;;;;5071157;28;20040;-64
2023/10/24 09:44:09;;;;;;;1.30;0.60;;;11.20;99.90;;;;;;5076870;28;20039;-64
2023/10/24 09:46:36;;;;;;;1.40;0.57;;;11.20;99.90;;;;;;5073623;28;20075;-64
2023/10/24 09:49:03;;;;;;;4.00;0.77;;;11.30;99.90;;;;;;5062581;28;20059;-64
2023/10/24 09:51:31;;;;;;;3.75;0.70;;;11.30;99.90;;;;;;5067111;28;20044;-63
2023/10/24 09:53:57;;;;;;;1.80;0.73;;;11.40;99.90;;;;;;5074971;28;20115;-63
2023/10/24 09:56:24;;;;;;;0.57;0.30;;;11.40;99.90;;;;;;5069321;28;20044;-63
2023/10/24 09:58:51;;;;;;;3.92;0.50;;;11.40;99.90;;;;;;5079017;28;20040;-63
2023/10/24 10:01:17;;;;;;;1.25;0.55;;;11.40;99.90;;;;;;5075754;28;20439;-64
2023/10/24 10:03:44;;;;;;;5.43;0.80;;;11.40;99.90;;;;;;5077092;28;20036;-63
2023/10/24 10:06:13;;;;;;;8.27;1.23;;;11.40;99.90;;;;;;5076457;28;20040;-64
2023/10/24 10:08:41;;;;;;;3.55;0.80;;;11.40;99.90;;;;;;5070244;28;20663;-64
2023/10/24 10:11:07;;;;;;;1.27;0.50;;;11.40;99.90;;;;;;5075135;28;20048;-63
2023/10/24 10:13:52;;;;;;;6.10;1.00;;;11.40;99.90;;;;;;5079227;28;20884;-62
2023/10/24 10:16:25;;;;;;;2.58;0.60;;;11.40;99.90;;;;;;5068925;28;20045;-64
2023/10/24 10:19:02;;;;;;;2.35;1.00;;;11.40;99.90;;;;;;5075164;28;20054;-63
2023/10/24 10:22:14;;;;;;;1.95;0.80;;;11.40;99.90;;;;;;5066996;28;20044;-66
2023/10/24 10:25:12;;;;;;;1.77;0.60;;;11.40;99.90;;;;;;5072978;28;20055;-63
2023/10/24 10:27:52;;;;;;;1.95;0.77;;;11.40;99.90;;;;;;5068193;28;20094;-64
2023/10/24 10:30:42;;;;;;;1.25;0.73;;;11.30;99.90;;;;;;5066057;28;20044;-63
2023/10/24 10:33:18;;;;;;;3.15;0.73;;;11.30;99.90;;;;;;5068395;28;20033;-64
2023/10/24 10:35:49;;;;;;;2.17;0.90;;;11.30;99.90;;;;;;5068909;28;20091;-63
2023/10/24 10:38:48;;;;;;;3.92;0.80;;;11.20;99.90;;;;;;5072373;28;20090;-62
2023/10/24 10:41:20;;;;;;;3.60;0.80;;;11.30;99.90;;;;;;5075685;28;20064;-63
2023/10/24 10:43:46;;;;;;;0.80;0.55;;;11.30;99.90;;;;;;5074609;28;20123;-64
2023/10/24 10:46:18;;;;;;;;;;;11.30;99.90;;;;;;5074904;28;20123;-64
2023/10/24 10:48:47;;;;;;;1.77;0.50;;;11.30;99.90;;;;;;5069494;28;20350;-64
2023/10/24 10:51:20;;;;;;;1.73;0.70;;;11.20;99.90;;;;;;5073122;28;20040;-65
2023/10/24 10:54:07;;;;;;;1.52;0.70;;;11.30;99.90;;;;;;5069241;28;20041;-64
2023/10/24 10:56:35;;;;;;;2.08;0.80;;;11.30;99.90;;;;;;5068982;28;20043;-63
2023/10/24 10:59:06;;;;;;;1.27;0.68;;;11.30;99.90;;;;;;5069666;28;20040;-64
2023/10/24 11:01:54;;;;;;;6.47;0.52;;;11.30;99.90;;;;;;5055859;28;20044;-63
2023/10/24 11:04:19;;;;;;;1.70;0.80;;;11.30;99.90;;;;;;5051410;28;20050;-65
2023/10/24 11:06:55;;;;;;;;;;;11.30;99.90;;;;;;5044918;28;20098;-63
2023/10/24 11:09:22;;;;;;;2.63;0.50;;;11.30;99.90;;;;;;5044045;28;19925;-65
2023/10/24 11:12:27;;;;;;;1.35;0.50;;;11.30;99.90;;;;;;5049549;28;20051;-62
2023/10/24 11:15:13;;;;;;;1.27;0.60;;;11.30;99.90;;;;;;5045474;28;20040;-64
2023/10/24 11:17:39;;;;;;;1.55;0.50;;;11.30;99.90;;;;;;5054476;28;20414;-63
2023/10/24 11:20:08;;;;;;;0.70;0.40;;;11.40;99.90;;;;;;5050298;28;20128;-64
2023/10/24 11:22:34;;;;;;;0.60;0.40;;;11.40;99.90;;;;;;5058075;28;20111;-62
2023/10/24 11:25:10;;;;;;;1.15;0.50;;;11.50;99.90;;;;;;5057961;28;20408;-61
2023/10/24 11:27:36;;;;;;;4.78;0.70;;;11.50;99.90;;;;;;5053961;28;20044;-63
2023/10/24 11:30:03;;;;;;;2.35;0.80;;;11.50;99.90;;;;;;5055054;28;20049;-63
2023/10/24 11:32:28;;;;;;;0.55;0.43;;;11.60;99.90;;;;;;5050090;28;20052;-64
2023/10/24 11:34:54;;;;;;;;;;;11.60;99.90;;;;;;5057096;28;20048;-62
2023/10/24 11:37:20;;;;;;;1.67;0.50;;;11.60;99.90;;;;;;5060205;28;20637;-62
2023/10/24 11:39:46;;;;;;;;;;;11.60;99.90;;;;;;5054864;28;20120;-63
2023/10/24 11:42:11;;;;;;;2.05;0.60;;;11.60;99.90;;;;;;5059184;28;19963;-62
2023/10/24 11:44:39;;;;;;;;;;;11.50;99.90;;;;;;5058568;28;20631;-63
2023/10/24 11:47:05;;;;;;;;;;;11.50;99.90;;;;;;5058271;28;19999;-64
2023/10/24 11:49:32;;;;;;;3.20;0.65;;;11.50;99.90;;;;;;5051721;28;19931;-63
2023/10/24 11:51:58;;;;;;;3.55;0.47;;;11.50;99.90;;;;;;5052497;28;20072;-63
2023/10/24 11:54:26;;;;;;;6.18;0.70;;;11.50;99.90;;;;;;5050855;28;20123;-62
2023/10/24 11:56:53;;;;;;;2.15;0.80;;;11.60;99.90;;;;;;5060571;28;20101;-63
2023/10/24 11:59:18;;;;;;;3.47;0.70;;;11.60;99.90;;;;;;5057231;28;20072;-63
2023/10/24 12:01:44;;;;;;;;;;;11.60;99.90;;;;;;5057379;28;20570;-62
2023/10/24 12:04:12;;;;;;;1.85;0.90;;;11.60;99.90;;;;;;5050143;28;20015;-62
2023/10/24 12:06:37;;;;;;;7.65;1.00;;;11.60;99.90;;;;;;5046682;28;20112;-63
2023/10/24 12:09:04;;;;;;;;;;;11.60;99.90;;;;;;5048448;28;20536;-62
2023/10/24 12:11:32;;;;;;;0.60;0.45;;;11.60;99.90;;;;;;5050918;28;19928;-63
2023/10/24 12:13:58;;;;;;;2.65;0.57;;;11.70;99.90;;;;;;5046283;28;20061;-63
2023/10/24 12:16:30;;;;;;;;;;;11.70;99.90;;;;;;5057229;28;20108;-62
2023/10/24 12:18:57;;;;;;;1.42;0.60;;;11.70;99.90;;;;;;5052663;28;19960;-63
2023/10/24 12:21:23;;;;;;;1.02;0.40;;;11.80;99.90;;;;;;5050763;28;20115;-63
2023/10/24 12:23:48;;;;;;;;;;;11.80;99.90;;;;;;5056884;28;20459;-63
2023/10/24 12:26:14;;;;;;;0.47;0.47;;;11.90;99.90;;;;;;5051749;28;20011;-64
2023/10/24 12:28:42;;;;;;;;;;;11.90;99.90;;;;;;5063393;28;20049;-63
2023/10/24 12:31:10;;;;;;;2.53;0.77;;;11.90;99.90;;;;;;5053024;28;20380;-64
2023/10/24 12:33:36;;;;;;;2.38;0.70;;;11.90;99.90;;;;;;5057553;28;20069;-62
2023/10/24 12:36:02;;;;;;;;;;;11.90;99.90;;;;;;5054396;28;20044;-64
2023/10/24 12:38:28;;;;;;;9.35;5.47;;;11.90;99.90;;;;;;5062706;28;19924;-59
2023/10/24 12:40:54;;;;;;;3.13;1.50;;;12.00;99.90;;;;;;5055151;28;20064;-62
2023/10/24 12:43:20;;;;;;;;;;;12.00;99.90;;;;;;5062759;28;20147;-63
2023/10/24 12:45:46;;;;;;;4.57;0.90;;;12.00;99.90;;;;;;5054294;28;19970;-61
2023/10/24 12:48:11;;;;;;;;;;;12.00;99.90;;;;;;5042564;28;23897;-62
2023/10/24 12:50:37;;;;;;;3.70;1.02;;;12.00;99.90;;;;;;5059255;28;19931;-62
2023/10/24 12:53:03;;;;;;;;;;;12.10;99.90;;;;;;5052354;28;20098;-63
2023/10/24 12:55:29;;;;;;;1.33;0.68;;;12.00;99.90;;;;;;5051799;28;19942;-63
2023/10/24 12:57:55;;;;;;;;;;;12.00;99.90;;;;;;5053276;28;20489;-62
2023/10/24 13:00:20;;;;;;;2.20;0.70;;;12.10;99.90;;;;;;5054597;28;20129;-63
2023/10/24 13:02:46;;;;;;;;;;;12.10;99.90;;;;;;5055670;28;20099;-63
2023/10/24 13:05:11;;;;;;;2.17;0.68;;;12.20;99.90;;;;;;5056885;28;19917;-62
2023/10/24 13:07:38;;;;;;;2.08;0.73;;;12.20;99.90;;;;;;5051495;28;20079;-64
2023/10/24 13:10:03;;;;;;;;;;;12.30;99.90;;;;;;5051528;28;20076;-64